createdAt,value
2019-01-14T00:00:16.065Z,88.7
2019-01-14T00:01:16.104Z,88.5
2019-01-14T00:02:16.387Z,88.3
2019-01-14T00:03:15.651Z,88.0
2019-01-14T00:04:15.929Z,88.3
2019-01-14T00:05:16.209Z,88.6
2019-01-14T00:06:16.473Z,88.5
2019-01-14T00:07:15.741Z,88.1
2019-01-14T00:08:16.008Z,88.3
2019-01-14T00:09:30.774Z,88.4
2019-01-14T00:10:16.244Z,88.7
2019-01-14T00:11:16.299Z,88.8
2019-01-14T00:12:16.558Z,88.8
2019-01-14T00:13:15.820Z,88.8
2019-01-14T00:14:16.085Z,88.7
2019-01-14T00:15:16.375Z,88.8
2019-01-14T00:16:15.644Z,88.8
2019-01-14T00:17:15.911Z,89.2
2019-01-14T00:18:16.174Z,89.4
2019-01-14T00:19:16.443Z,88.9
2019-01-14T00:20:15.726Z,88.8
2019-01-14T00:21:15.890Z,88.7
2019-01-14T00:22:16.167Z,89.1
2019-01-14T00:23:16.432Z,89.0
2019-01-14T00:24:15.698Z,88.9
2019-01-14T00:25:15.963Z,89.1
2019-01-14T00:26:16.232Z,89.2
2019-01-14T00:27:16.497Z,89.1
2019-01-14T00:28:15.779Z,88.5
2019-01-14T00:29:16.053Z,88.7
2019-01-14T00:30:16.323Z,89.0
2019-01-14T00:31:16.380Z,89.0
2019-01-14T00:32:15.655Z,89.0
2019-01-14T00:33:15.928Z,89.2
2019-01-14T00:34:16.188Z,89.1
2019-01-14T00:35:16.449Z,88.9
2019-01-14T00:36:17.862Z,89.2
2019-01-14T00:37:16.136Z,89.2
2019-01-14T00:38:16.402Z,89.1
2019-01-14T00:39:15.666Z,89.3
2019-01-14T00:40:15.945Z,88.9
2019-01-14T00:41:15.993Z,89.1
2019-01-14T00:42:16.256Z,88.8
2019-01-14T00:43:16.540Z,89.0
2019-01-14T00:44:15.798Z,88.6
2019-01-14T00:45:16.076Z,88.9
2019-01-14T00:46:16.335Z,88.7
2019-01-14T00:47:16.602Z,88.5
2019-01-14T00:48:15.873Z,88.0
2019-01-14T00:49:16.133Z,88.4
2019-01-14T00:50:16.422Z,88.5
2019-01-14T00:51:16.442Z,88.3
2019-01-14T00:52:15.700Z,88.2
2019-01-14T00:53:15.963Z,88.2
2019-01-14T00:54:16.232Z,88.2
2019-01-14T00:55:16.521Z,88.5
2019-01-14T00:56:15.787Z,88.1
2019-01-14T00:57:16.051Z,87.9
2019-01-14T00:58:16.311Z,88.3
2019-01-14T00:59:16.580Z,88.1
2019-01-14T01:00:15.849Z,88.0
2019-01-14T01:01:15.924Z,88.1
2019-01-14T01:02:16.192Z,88.2
2019-01-14T01:03:16.448Z,88.3
2019-01-14T01:04:15.714Z,87.9
2019-01-14T01:05:15.985Z,88.1
2019-01-14T01:06:16.497Z,88.0
2019-01-14T01:07:15.802Z,87.7
2019-01-14T01:08:16.072Z,88.0
2019-01-14T01:09:16.336Z,87.8
2019-01-14T01:10:16.625Z,87.9
2019-01-14T01:11:15.646Z,87.9
2019-01-14T01:12:15.908Z,88.2
2019-01-14T01:13:16.178Z,88.1
2019-01-14T01:14:16.445Z,88.2
2019-01-14T01:15:15.712Z,88.0
2019-01-14T01:16:15.980Z,88.2
2019-01-14T01:17:16.246Z,88.2
2019-01-14T01:18:16.512Z,88.4
2019-01-14T01:19:15.784Z,88.6
2019-01-14T01:20:16.136Z,88.6
2019-01-14T01:21:16.106Z,88.1
2019-01-14T01:22:16.370Z,88.6
2019-01-14T01:23:15.632Z,88.7
2019-01-14T01:24:15.893Z,88.5
2019-01-14T01:25:16.161Z,88.5
2019-01-14T01:26:16.427Z,88.2
2019-01-14T01:27:15.684Z,88.5
2019-01-14T01:28:15.951Z,88.3
2019-01-14T01:29:16.213Z,88.3
2019-01-14T01:30:16.521Z,88.4
2019-01-14T01:31:16.568Z,88.5
2019-01-14T01:32:15.827Z,88.2
2019-01-14T01:33:16.097Z,88.3
2019-01-14T01:34:16.365Z,88.2
2019-01-14T01:35:15.631Z,88.1
2019-01-14T01:36:15.892Z,88.2
2019-01-14T01:37:16.170Z,88.3
2019-01-14T01:38:16.429Z,88.1
2019-01-14T01:39:15.703Z,88.2
2019-01-14T01:40:15.967Z,88.1
2019-01-14T01:41:16.023Z,88.2
2019-01-14T01:42:16.303Z,88.3
2019-01-14T01:43:16.568Z,88.2
2019-01-14T01:44:15.843Z,88.2
2019-01-14T01:45:16.121Z,88.3
2019-01-14T01:46:16.380Z,88.0
2019-01-14T01:47:15.646Z,88.2
2019-01-14T01:48:15.915Z,88.1
2019-01-14T01:49:16.176Z,88.3
2019-01-14T01:50:16.447Z,88.4
2019-01-14T01:51:16.490Z,88.4
2019-01-14T01:52:15.760Z,88.9
2019-01-14T01:53:16.030Z,88.2
2019-01-14T01:54:16.306Z,88.2
2019-01-14T01:55:16.568Z,88.3
2019-01-14T01:56:15.833Z,88.2
2019-01-14T01:57:16.107Z,88.1
2019-01-14T01:58:16.376Z,88.6
2019-01-14T01:59:15.657Z,88.3
2019-01-14T02:00:15.940Z,88.7
2019-01-14T02:01:15.979Z,88.3
2019-01-14T02:02:16.246Z,88.2
2019-01-14T02:03:16.511Z,88.6
2019-01-14T02:04:15.773Z,88.5
2019-01-14T02:05:16.055Z,88.7
2019-01-14T02:06:16.319Z,88.7
2019-01-14T02:07:16.588Z,88.2
2019-01-14T02:08:15.866Z,88.2
2019-01-14T02:09:16.141Z,88.0
2019-01-14T02:10:16.411Z,88.2
2019-01-14T02:11:16.495Z,88.2
2019-01-14T02:12:15.763Z,88.0
2019-01-14T02:13:16.035Z,88.5
2019-01-14T02:14:16.294Z,88.8
2019-01-14T02:15:16.570Z,88.2
2019-01-14T02:16:15.893Z,88.3
2019-01-14T02:17:16.168Z,88.2
2019-01-14T02:18:16.443Z,88.2
2019-01-14T02:19:15.710Z,88.3
2019-01-14T02:20:15.982Z,88.2
2019-01-14T02:21:16.048Z,87.4
2019-01-14T02:22:16.307Z,87.4
2019-01-14T02:23:16.570Z,87.5
2019-01-14T02:24:15.832Z,87.7
2019-01-14T02:25:16.102Z,87.7
2019-01-14T02:26:16.382Z,87.8
2019-01-14T02:27:15.643Z,88.0
2019-01-14T02:28:15.914Z,88.2
2019-01-14T02:29:16.184Z,88.0
2019-01-14T02:30:16.521Z,88.0
2019-01-14T02:31:16.926Z,87.8
2019-01-14T02:32:16.196Z,87.5
2019-01-14T02:33:16.523Z,87.5
2019-01-14T02:34:15.800Z,87.5
2019-01-14T02:35:16.070Z,87.4
2019-01-14T02:36:16.348Z,87.6
2019-01-14T02:37:15.610Z,87.2
2019-01-14T02:38:15.876Z,87.0
2019-01-14T02:39:16.172Z,87.1
2019-01-14T02:40:16.451Z,87.0
2019-01-14T02:41:16.791Z,87.1
2019-01-14T02:42:16.064Z,87.2
2019-01-14T02:43:16.337Z,87.0
2019-01-14T02:44:16.602Z,87.0
2019-01-14T02:45:15.890Z,87.2
2019-01-14T02:46:16.150Z,87.1
2019-01-14T02:47:16.412Z,87.3
2019-01-14T02:48:15.674Z,87.4
2019-01-14T02:49:15.938Z,87.2
2019-01-14T02:50:16.218Z,87.0
2019-01-14T02:51:16.254Z,86.9
2019-01-14T02:52:16.531Z,87.0
2019-01-14T02:53:15.799Z,87.1
2019-01-14T02:54:16.055Z,87.5
2019-01-14T02:55:16.321Z,87.0
2019-01-14T02:56:16.596Z,87.5
2019-01-14T02:57:16.107Z,86.9
2019-01-14T02:58:16.377Z,86.9
2019-01-14T02:59:15.645Z,87.4
2019-01-14T03:00:15.922Z,86.9
2019-01-14T03:01:15.982Z,87.2
2019-01-14T03:02:16.239Z,86.7
2019-01-14T03:03:16.497Z,87.3
2019-01-14T03:04:15.764Z,87.0
2019-01-14T03:05:16.074Z,87.7
2019-01-14T03:06:16.343Z,87.1
2019-01-14T03:07:16.628Z,87.0
2019-01-14T03:08:15.891Z,86.9
2019-01-14T03:09:16.161Z,86.9
2019-01-14T03:10:16.433Z,87.3
2019-01-14T03:11:16.478Z,87.1
2019-01-14T03:12:15.756Z,87.2
2019-01-14T03:13:16.122Z,86.8
2019-01-14T03:14:16.393Z,87.2
2019-01-14T03:15:15.666Z,87.0
2019-01-14T03:16:15.938Z,86.8
2019-01-14T03:17:16.207Z,86.8
2019-01-14T03:18:16.467Z,86.7
2019-01-14T03:19:16.537Z,87.0
2019-01-14T03:20:15.820Z,87.2
2019-01-14T03:21:15.878Z,86.6
2019-01-14T03:22:16.559Z,87.1
2019-01-14T03:23:15.831Z,87.1
2019-01-14T03:24:16.099Z,86.8
2019-01-14T03:25:16.363Z,86.7
2019-01-14T03:26:15.635Z,86.8
2019-01-14T03:27:15.913Z,86.7
2019-01-14T03:28:16.189Z,86.8
2019-01-14T03:29:16.468Z,87.3
2019-01-14T03:30:15.788Z,86.7
2019-01-14T03:31:15.803Z,86.8
2019-01-14T03:32:16.079Z,86.7
2019-01-14T03:33:16.399Z,86.7
2019-01-14T03:34:15.674Z,86.8
2019-01-14T03:35:15.949Z,86.8
2019-01-14T03:36:16.209Z,86.5
2019-01-14T03:37:16.471Z,86.5
2019-01-14T03:38:15.741Z,86.4
2019-01-14T03:39:16.052Z,86.8
2019-01-14T03:40:16.385Z,86.8
2019-01-14T03:41:16.389Z,86.9
2019-01-14T03:42:15.658Z,86.7
2019-01-14T03:43:15.915Z,86.5
2019-01-14T03:44:16.185Z,86.8
2019-01-14T03:45:16.478Z,86.7
2019-01-14T03:46:15.754Z,86.4
2019-01-14T03:47:16.023Z,86.6
2019-01-14T03:48:16.298Z,86.9
2019-01-14T03:49:16.826Z,86.6
2019-01-14T03:50:16.095Z,86.6
2019-01-14T03:51:16.146Z,86.8
2019-01-14T03:52:16.483Z,86.5
2019-01-14T03:53:15.748Z,86.3
2019-01-14T03:54:16.559Z,86.5
2019-01-14T03:55:15.835Z,86.5
2019-01-14T03:56:16.108Z,86.5
2019-01-14T03:57:16.376Z,86.4
2019-01-14T03:58:15.665Z,86.6
2019-01-14T03:59:15.943Z,87.2
2019-01-14T04:00:16.237Z,86.5
2019-01-14T04:01:16.254Z,86.9
2019-01-14T04:02:16.514Z,86.6
2019-01-14T04:03:15.790Z,86.4
2019-01-14T04:04:16.063Z,86.3
2019-01-14T04:05:16.364Z,86.5
2019-01-14T04:06:15.639Z,86.7
2019-01-14T04:07:15.902Z,86.5
2019-01-14T04:08:16.173Z,86.5
2019-01-14T04:09:16.436Z,86.5
2019-01-14T04:10:15.715Z,86.3
2019-01-14T04:11:15.772Z,86.7
2019-01-14T04:12:16.037Z,86.3
2019-01-14T04:13:16.295Z,86.5
2019-01-14T04:14:16.563Z,86.8
2019-01-14T04:15:15.831Z,86.5
2019-01-14T04:16:16.108Z,86.2
2019-01-14T04:17:16.375Z,86.1
2019-01-14T04:18:15.645Z,86.5
2019-01-14T04:19:15.918Z,86.3
2019-01-14T04:20:16.248Z,86.5
2019-01-14T04:21:16.234Z,86.4
2019-01-14T04:22:16.515Z,86.4
2019-01-14T04:23:15.788Z,86.4
2019-01-14T04:24:16.070Z,86.5
2019-01-14T04:25:16.338Z,86.7
2019-01-14T04:26:15.609Z,86.7
2019-01-14T04:27:15.871Z,86.9
2019-01-14T04:28:16.137Z,87.5
2019-01-14T04:29:16.398Z,87.3
2019-01-14T04:30:15.685Z,87.3
2019-01-14T04:31:16.032Z,87.6
2019-01-14T04:32:16.313Z,87.2
2019-01-14T04:33:16.578Z,87.2
2019-01-14T04:34:15.835Z,87.4
2019-01-14T04:35:16.102Z,87.4
2019-01-14T04:36:16.378Z,87.2
2019-01-14T04:37:21.877Z,87.5
2019-01-14T04:38:16.151Z,87.4
2019-01-14T04:39:16.412Z,87.6
2019-01-14T04:40:15.676Z,87.6
2019-01-14T04:41:15.728Z,87.6
2019-01-14T04:42:15.991Z,87.5
2019-01-14T04:43:16.262Z,87.8
2019-01-14T04:44:16.548Z,87.2
2019-01-14T04:45:15.811Z,87.3
2019-01-14T04:46:16.076Z,87.1
2019-01-14T04:47:16.340Z,87.2
2019-01-14T04:48:16.609Z,87.5
2019-01-14T04:49:15.884Z,87.0
2019-01-14T04:50:16.156Z,87.4
2019-01-14T04:51:16.242Z,87.6
2019-01-14T04:52:16.507Z,87.2
2019-01-14T04:53:15.781Z,86.9
2019-01-14T04:54:16.047Z,87.0
2019-01-14T04:55:16.317Z,87.1
2019-01-14T04:56:16.599Z,86.8
2019-01-14T04:57:15.880Z,86.9
2019-01-14T04:58:16.143Z,86.5
2019-01-14T04:59:16.411Z,86.5
2019-01-14T05:00:15.699Z,86.6
2019-01-14T05:01:15.723Z,87.0
2019-01-14T05:02:15.987Z,86.3
2019-01-14T05:03:16.267Z,86.3
2019-01-14T05:04:16.548Z,86.3
2019-01-14T05:05:15.814Z,86.6
2019-01-14T05:06:16.075Z,86.6
2019-01-14T05:07:16.337Z,86.6
2019-01-14T05:08:16.611Z,86.9
2019-01-14T05:09:15.884Z,87.3
2019-01-14T05:10:16.171Z,87.2
2019-01-14T05:11:16.398Z,87.4
2019-01-14T05:12:15.690Z,87.3
2019-01-14T05:13:15.961Z,87.2
2019-01-14T05:14:16.225Z,86.9
2019-01-14T05:15:16.509Z,87.1
2019-01-14T05:16:15.784Z,87.2
2019-01-14T05:17:16.058Z,87.5
2019-01-14T05:18:16.345Z,87.5
2019-01-14T05:19:15.602Z,86.9
2019-01-14T05:20:15.876Z,86.4
2019-01-14T05:21:15.921Z,86.6
2019-01-14T05:22:16.177Z,86.4
2019-01-14T05:23:16.465Z,85.3
2019-01-14T05:24:15.741Z,85.5
2019-01-14T05:25:16.027Z,84.3
2019-01-14T05:26:16.289Z,84.0
2019-01-14T05:27:16.572Z,84.0
2019-01-14T05:28:15.841Z,83.2
2019-01-14T05:29:16.107Z,83.2
2019-01-14T05:30:16.398Z,82.8
2019-01-14T05:31:16.425Z,82.8
2019-01-14T05:32:15.688Z,82.5
2019-01-14T05:33:15.948Z,82.8
2019-01-14T05:34:16.214Z,83.6
2019-01-14T05:35:16.485Z,82.4
2019-01-14T05:36:15.743Z,82.5
2019-01-14T05:37:16.015Z,83.2
2019-01-14T05:38:16.280Z,83.3
2019-01-14T05:39:16.543Z,83.8
2019-01-14T05:40:15.837Z,84.0
2019-01-14T05:41:15.882Z,84.7
2019-01-14T05:42:16.145Z,85.2
2019-01-14T05:43:16.421Z,86.0
2019-01-14T05:44:15.685Z,87.0
2019-01-14T05:45:15.945Z,87.2
2019-01-14T05:46:16.518Z,87.6
2019-01-14T05:47:15.798Z,88.6
2019-01-14T05:48:16.073Z,89.4
2019-01-14T05:49:16.351Z,89.9
2019-01-14T05:50:15.618Z,89.8
2019-01-14T05:51:15.666Z,90.1
2019-01-14T05:52:15.928Z,89.9
2019-01-14T05:53:16.196Z,90.3
2019-01-14T05:54:16.452Z,90.7
2019-01-14T05:55:15.724Z,91.3
2019-01-14T05:56:16.728Z,91.8
2019-01-14T05:57:16.004Z,92.1
2019-01-14T05:58:16.278Z,91.8
2019-01-14T05:59:16.553Z,92.2
2019-01-14T06:00:15.833Z,92.6
2019-01-14T06:01:15.885Z,92.7
2019-01-14T06:02:16.164Z,92.4
2019-01-14T06:03:16.424Z,92.7
2019-01-14T06:04:15.692Z,92.8
2019-01-14T06:05:15.951Z,92.8
2019-01-14T06:06:16.207Z,93.0
2019-01-14T06:07:16.544Z,93.5
2019-01-14T06:08:15.810Z,93.4
2019-01-14T06:09:16.069Z,93.2
2019-01-14T06:10:16.349Z,93.5
2019-01-14T06:11:16.383Z,93.5
2019-01-14T06:12:15.641Z,93.8
2019-01-14T06:13:15.908Z,94.2
2019-01-14T06:14:16.194Z,94.1
2019-01-14T06:15:16.489Z,94.2
2019-01-14T06:16:15.775Z,94.6
2019-01-14T06:17:16.040Z,94.7
2019-01-14T06:18:16.312Z,94.6
2019-01-14T06:19:16.576Z,94.7
2019-01-14T06:20:15.863Z,95.0
2019-01-14T06:21:15.897Z,95.0
2019-01-14T06:22:16.170Z,94.9
2019-01-14T06:23:16.435Z,95.0
2019-01-14T06:24:15.697Z,95.2
2019-01-14T06:25:15.969Z,95.2
2019-01-14T06:26:16.243Z,95.4
2019-01-14T06:27:16.509Z,95.4
2019-01-14T06:28:15.819Z,95.2
2019-01-14T06:29:16.081Z,95.2
2019-01-14T06:30:16.365Z,94.8
2019-01-14T06:31:16.393Z,94.8
2019-01-14T06:32:15.663Z,94.8
2019-01-14T06:33:15.937Z,95.0
2019-01-14T06:34:16.218Z,94.9
2019-01-14T06:35:16.531Z,94.5
2019-01-14T06:36:15.840Z,94.7
2019-01-14T06:37:16.109Z,94.7
2019-01-14T06:38:16.384Z,94.7
2019-01-14T06:39:15.657Z,94.3
2019-01-14T06:40:15.931Z,94.0
2019-01-14T06:41:15.974Z,94.1
2019-01-14T06:42:16.240Z,93.8
2019-01-14T06:43:16.512Z,93.7
2019-01-14T06:44:15.781Z,93.2
2019-01-14T06:45:16.056Z,92.9
2019-01-14T06:46:16.313Z,92.7
2019-01-14T06:47:16.568Z,92.4
2019-01-14T06:48:15.827Z,92.7
2019-01-14T06:49:16.105Z,92.2
2019-01-14T06:50:16.394Z,91.8
2019-01-14T06:51:16.418Z,91.3
2019-01-14T06:52:15.677Z,91.1
2019-01-14T06:53:15.942Z,91.0
2019-01-14T06:54:16.215Z,90.7
2019-01-14T06:55:16.499Z,90.7
2019-01-14T06:56:15.770Z,90.6
2019-01-14T06:57:16.042Z,90.5
2019-01-14T06:58:16.305Z,89.7
2019-01-14T06:59:16.565Z,89.6
2019-01-14T07:00:15.865Z,89.0
2019-01-14T07:01:15.903Z,88.9
2019-01-14T07:02:16.179Z,88.5
2019-01-14T07:03:16.454Z,87.8
2019-01-14T07:04:15.725Z,88.2
2019-01-14T07:05:15.996Z,88.4
2019-01-14T07:06:16.262Z,87.8
2019-01-14T07:07:16.520Z,88.2
2019-01-14T07:08:15.775Z,87.3
2019-01-14T07:09:16.037Z,87.2
2019-01-14T07:10:16.305Z,87.2
2019-01-14T07:11:16.351Z,86.8
2019-01-14T07:12:15.621Z,86.5
2019-01-14T07:13:15.894Z,86.8
2019-01-14T07:14:16.164Z,86.8
2019-01-14T07:15:16.444Z,86.5
2019-01-14T07:16:15.775Z,86.4
2019-01-14T07:17:16.085Z,86.3
2019-01-14T07:18:16.375Z,86.2
2019-01-14T07:19:15.639Z,85.8
2019-01-14T07:20:15.973Z,85.5
2019-01-14T07:21:15.955Z,85.2
2019-01-14T07:22:16.214Z,85.9
2019-01-14T07:23:16.477Z,85.0
2019-01-14T07:24:15.749Z,85.2
2019-01-14T07:25:16.024Z,85.3
2019-01-14T07:26:16.299Z,84.7
2019-01-14T07:27:16.561Z,85.4
2019-01-14T07:28:15.837Z,84.8
2019-01-14T07:29:16.104Z,85.7
2019-01-14T07:30:16.382Z,84.8
2019-01-14T07:31:16.442Z,85.0
2019-01-14T07:32:15.710Z,84.9
2019-01-14T07:33:16.049Z,84.2
2019-01-14T07:34:16.319Z,84.3
2019-01-14T07:35:16.583Z,84.2
2019-01-14T07:36:15.846Z,84.3
2019-01-14T07:37:16.120Z,84.8
2019-01-14T07:38:16.384Z,84.9
2019-01-14T07:39:15.654Z,85.1
2019-01-14T07:40:15.927Z,85.4
2019-01-14T07:41:15.962Z,85.3
2019-01-14T07:42:16.224Z,85.5
2019-01-14T07:43:16.487Z,85.6
2019-01-14T07:44:15.754Z,86.0
2019-01-14T07:45:16.031Z,85.9
2019-01-14T07:46:16.289Z,86.2
2019-01-14T07:47:16.582Z,86.3
2019-01-14T07:48:15.853Z,86.3
2019-01-14T07:49:16.121Z,86.5
2019-01-14T07:50:16.406Z,86.5
2019-01-14T07:51:16.436Z,86.6
2019-01-14T07:52:15.709Z,86.8
2019-01-14T07:53:15.972Z,86.8
2019-01-14T07:54:16.239Z,87.0
2019-01-14T07:55:16.514Z,87.3
2019-01-14T07:56:15.784Z,87.6
2019-01-14T07:57:17.581Z,87.4
2019-01-14T07:58:15.844Z,87.8
2019-01-14T07:59:16.110Z,88.0
2019-01-14T08:00:16.383Z,87.8
2019-01-14T08:01:16.450Z,87.8
2019-01-14T08:02:15.716Z,88.2
2019-01-14T08:03:15.989Z,87.9
2019-01-14T08:04:16.251Z,87.9
2019-01-14T08:05:16.526Z,88.3
2019-01-14T08:06:15.785Z,88.3
2019-01-14T08:07:16.054Z,88.5
2019-01-14T08:08:16.314Z,88.2
2019-01-14T08:09:16.583Z,88.1
2019-01-14T08:10:15.850Z,88.2
2019-01-14T08:11:15.880Z,88.1
2019-01-14T08:12:16.136Z,88.5
2019-01-14T08:13:16.398Z,88.8
2019-01-14T08:14:15.670Z,89.3
2019-01-14T08:15:15.937Z,89.0
2019-01-14T08:16:16.210Z,88.7
2019-01-14T08:17:16.489Z,88.0
2019-01-14T08:18:15.748Z,88.0
2019-01-14T08:19:16.010Z,88.1
2019-01-14T08:20:16.277Z,88.4
2019-01-14T08:21:16.324Z,88.2
2019-01-14T08:22:16.585Z,88.4
2019-01-14T08:23:15.850Z,88.5
2019-01-14T08:24:16.118Z,88.8
2019-01-14T08:25:16.378Z,88.5
2019-01-14T08:26:15.647Z,87.9
2019-01-14T08:27:15.932Z,87.8
2019-01-14T08:28:16.196Z,87.8
2019-01-14T08:29:16.455Z,87.9
2019-01-14T08:30:15.725Z,88.1
2019-01-14T08:31:15.800Z,88.2
2019-01-14T08:32:16.067Z,87.7
2019-01-14T08:33:16.327Z,88.0
2019-01-14T08:34:16.588Z,88.1
2019-01-14T08:35:15.856Z,87.5
2019-01-14T08:36:16.119Z,87.3
2019-01-14T08:37:16.388Z,87.0
2019-01-14T08:38:21.537Z,87.0
2019-01-14T08:39:15.838Z,87.0
2019-01-14T08:40:16.116Z,87.2
2019-01-14T08:41:16.169Z,87.1
2019-01-14T08:42:16.434Z,87.1
2019-01-14T08:43:15.698Z,87.4
2019-01-14T08:44:15.962Z,87.3
2019-01-14T08:45:16.232Z,86.9
2019-01-14T08:46:16.507Z,86.8
2019-01-14T08:47:15.773Z,86.7
2019-01-14T08:48:16.035Z,86.6
2019-01-14T08:49:16.302Z,86.3
2019-01-14T08:50:16.577Z,86.3
2019-01-14T08:51:15.626Z,86.5
2019-01-14T08:52:15.906Z,86.2
2019-01-14T08:53:16.175Z,86.1
2019-01-14T08:54:16.488Z,86.1
2019-01-14T08:55:15.760Z,86.0
2019-01-14T08:56:16.022Z,86.1
2019-01-14T08:57:16.286Z,85.8
2019-01-14T08:58:16.559Z,86.2
2019-01-14T08:59:15.831Z,86.1
2019-01-14T09:00:16.119Z,86.2
2019-01-14T09:01:16.157Z,86.5
2019-01-14T09:02:16.417Z,86.0
2019-01-14T09:03:15.684Z,86.2
2019-01-14T09:04:15.985Z,86.2
2019-01-14T09:05:16.251Z,86.4
2019-01-14T09:06:16.515Z,86.5
2019-01-14T09:07:15.777Z,86.3
2019-01-14T09:08:16.048Z,86.7
2019-01-14T09:09:16.314Z,87.3
2019-01-14T09:10:16.577Z,87.2
2019-01-14T09:11:15.643Z,87.1
2019-01-14T09:12:15.916Z,87.1
2019-01-14T09:13:16.182Z,87.3
2019-01-14T09:14:16.447Z,87.2
2019-01-14T09:15:15.707Z,87.5
2019-01-14T09:16:15.970Z,87.8
2019-01-14T09:17:16.225Z,88.0
2019-01-14T09:18:16.506Z,87.8
2019-01-14T09:19:15.763Z,87.4
2019-01-14T09:20:16.030Z,88.0
2019-01-14T09:21:16.108Z,88.3
2019-01-14T09:22:16.368Z,88.8
2019-01-14T09:23:15.623Z,89.3
2019-01-14T09:24:15.907Z,89.5
2019-01-14T09:25:16.183Z,89.5
2019-01-14T09:26:16.453Z,89.5
2019-01-14T09:27:15.714Z,89.6
2019-01-14T09:28:16.007Z,89.4
2019-01-14T09:29:16.288Z,89.3
2019-01-14T09:30:16.588Z,89.2
2019-01-14T09:31:15.624Z,89.1
2019-01-14T09:32:15.880Z,89.5
2019-01-14T09:33:16.135Z,89.6
2019-01-14T09:34:16.396Z,89.4
2019-01-14T09:35:15.653Z,89.3
2019-01-14T09:36:15.912Z,89.8
2019-01-14T09:37:16.178Z,89.8
2019-01-14T09:38:16.449Z,90.0
2019-01-14T09:39:15.714Z,89.9
2019-01-14T09:40:15.995Z,90.2
2019-01-14T09:41:16.018Z,90.5
2019-01-14T09:42:16.279Z,90.5
2019-01-14T09:43:16.546Z,90.6
2019-01-14T09:44:15.814Z,90.2
2019-01-14T09:45:16.075Z,90.2
2019-01-14T09:46:16.337Z,90.2
2019-01-14T09:47:16.596Z,90.0
2019-01-14T09:48:15.883Z,90.2
2019-01-14T09:49:16.153Z,90.2
2019-01-14T09:50:16.410Z,91.0
2019-01-14T09:51:16.481Z,91.5
2019-01-14T09:52:15.744Z,91.8
2019-01-14T09:53:16.009Z,90.6
2019-01-14T09:54:16.266Z,91.4
2019-01-14T09:55:16.539Z,92.3
2019-01-14T09:56:15.809Z,92.7
2019-01-14T09:57:16.078Z,92.7
2019-01-14T09:58:16.335Z,93.4
2019-01-14T09:59:16.602Z,93.5
2019-01-14T10:00:15.876Z,94.2
2019-01-14T10:01:15.944Z,94.5
2019-01-14T10:02:16.214Z,94.8
2019-01-14T10:03:16.492Z,95.2
2019-01-14T10:04:15.762Z,95.4
2019-01-14T10:05:16.047Z,95.8
2019-01-14T10:06:16.317Z,96.0
2019-01-14T10:07:16.670Z,96.2
2019-01-14T10:08:15.966Z,96.4
2019-01-14T10:09:16.222Z,96.5
2019-01-14T10:10:16.501Z,96.9
2019-01-14T10:11:16.551Z,97.0
2019-01-14T10:12:15.822Z,97.3
2019-01-14T10:13:16.090Z,97.6
2019-01-14T10:14:16.362Z,97.7
2019-01-14T10:15:15.626Z,98.3
2019-01-14T10:16:15.890Z,98.3
2019-01-14T10:17:16.159Z,98.2
2019-01-14T10:18:16.429Z,98.2
2019-01-14T10:19:15.692Z,98.2
2019-01-14T10:20:15.986Z,98.5
2019-01-14T10:21:16.106Z,98.5
2019-01-14T10:22:16.634Z,98.4
2019-01-14T10:23:15.897Z,98.3
2019-01-14T10:24:16.158Z,98.4
2019-01-14T10:25:16.419Z,98.7
2019-01-14T10:26:16.336Z,98.8
2019-01-14T10:27:15.611Z,98.8
2019-01-14T10:28:15.878Z,98.8
2019-01-14T10:29:16.138Z,98.8
2019-01-14T10:30:16.402Z,98.8
2019-01-14T10:31:20.116Z,98.7
2019-01-14T10:32:16.427Z,98.7
2019-01-14T10:33:15.685Z,98.5
2019-01-14T10:34:15.943Z,98.4
2019-01-14T10:35:16.231Z,98.5
2019-01-14T10:36:16.498Z,98.4
2019-01-14T10:37:23.015Z,98.3
2019-01-14T10:38:16.309Z,98.3
2019-01-14T10:39:17.242Z,98.3
2019-01-14T10:40:16.516Z,98.3
2019-01-14T10:41:16.563Z,98.2
2019-01-14T10:42:15.828Z,98.2
2019-01-14T10:43:16.093Z,98.2
2019-01-14T10:44:16.353Z,98.2
2019-01-14T10:45:15.627Z,98.2
2019-01-14T10:46:15.893Z,98.2
2019-01-14T10:47:16.147Z,98.3
2019-01-14T10:48:16.407Z,98.3
2019-01-14T10:49:15.676Z,98.3
2019-01-14T10:50:15.944Z,98.1
2019-01-14T10:51:15.999Z,98.0
2019-01-14T10:52:16.276Z,97.8
2019-01-14T10:53:16.532Z,97.9
2019-01-14T10:54:15.787Z,98.0
2019-01-14T10:55:16.077Z,97.8
2019-01-14T10:56:16.384Z,97.8
2019-01-14T10:57:15.658Z,97.5
2019-01-14T10:58:15.934Z,97.5
2019-01-14T10:59:16.199Z,97.7
2019-01-14T11:00:16.464Z,97.6
2019-01-14T11:01:16.526Z,97.5
2019-01-14T11:02:15.795Z,97.5
2019-01-14T11:03:16.069Z,97.5
2019-01-14T11:04:16.336Z,97.2
2019-01-14T11:05:16.614Z,97.2
2019-01-14T11:06:15.879Z,97.5
2019-01-14T11:07:16.150Z,97.5
2019-01-14T11:08:16.416Z,97.3
2019-01-14T11:09:15.682Z,97.2
2019-01-14T11:10:15.968Z,97.3
2019-01-14T11:11:16.008Z,97.6
2019-01-14T11:12:16.274Z,97.6
2019-01-14T11:13:16.553Z,97.3
2019-01-14T11:14:15.829Z,97.1
2019-01-14T11:15:16.109Z,97.0
2019-01-14T11:16:16.367Z,96.8
2019-01-14T11:17:15.633Z,96.7
2019-01-14T11:18:15.904Z,96.3
2019-01-14T11:19:16.178Z,96.0
2019-01-14T11:20:16.442Z,96.1
2019-01-14T11:21:16.486Z,96.2
2019-01-14T11:22:15.757Z,96.6
2019-01-14T11:23:16.030Z,96.3
2019-01-14T11:24:16.296Z,96.0
2019-01-14T11:25:16.570Z,96.0
2019-01-14T11:26:15.831Z,95.6
2019-01-14T11:27:16.097Z,95.5
2019-01-14T11:28:16.361Z,95.5
2019-01-14T11:29:15.634Z,95.3
2019-01-14T11:30:15.912Z,94.5
2019-01-14T11:31:15.939Z,94.2
2019-01-14T11:32:16.207Z,94.0
2019-01-14T11:33:16.485Z,93.5
2019-01-14T11:34:15.752Z,92.3
2019-01-14T11:35:16.023Z,92.2
2019-01-14T11:36:16.293Z,92.3
2019-01-14T11:37:16.574Z,92.1
2019-01-14T11:38:15.842Z,92.2
2019-01-14T11:39:16.107Z,92.2
2019-01-14T11:40:16.377Z,91.3
2019-01-14T11:41:16.440Z,91.2
2019-01-14T11:42:15.747Z,90.1
2019-01-14T11:43:16.005Z,89.8
2019-01-14T11:44:16.282Z,90.0
2019-01-14T11:45:16.551Z,90.1
2019-01-14T11:46:15.827Z,90.3
2019-01-14T11:47:16.087Z,90.2
2019-01-14T11:48:16.358Z,89.5
2019-01-14T11:49:15.619Z,89.2
2019-01-14T11:50:17.455Z,88.4
2019-01-14T11:51:15.949Z,88.4
2019-01-14T11:52:16.227Z,88.2
2019-01-14T11:53:16.493Z,88.0
2019-01-14T11:54:15.755Z,87.7
2019-01-14T11:55:16.035Z,87.9
2019-01-14T11:56:16.293Z,86.5
2019-01-14T11:57:16.564Z,86.7
2019-01-14T11:58:15.828Z,85.8
2019-01-14T11:59:16.099Z,85.9
2019-01-14T12:00:16.383Z,85.9
2019-01-14T12:01:16.451Z,86.0
2019-01-14T12:02:15.712Z,85.8
2019-01-14T12:03:15.987Z,85.4
2019-01-14T12:04:16.260Z,85.8
2019-01-14T12:05:16.531Z,85.7
2019-01-14T12:06:15.794Z,84.6
2019-01-14T12:07:16.054Z,84.7
2019-01-14T12:08:16.319Z,85.1
2019-01-14T12:09:16.590Z,84.4
2019-01-14T12:10:15.901Z,84.1
2019-01-14T12:11:15.933Z,83.9
2019-01-14T12:12:16.190Z,84.7
2019-01-14T12:13:16.477Z,84.1
2019-01-14T12:14:15.803Z,83.9
2019-01-14T12:15:16.082Z,83.7
2019-01-14T12:16:16.353Z,83.7
2019-01-14T12:17:15.617Z,84.9
2019-01-14T12:18:15.893Z,84.9
2019-01-14T12:19:16.171Z,83.5
2019-01-14T12:20:16.431Z,84.7
2019-01-14T12:21:16.496Z,84.7
2019-01-14T12:22:15.760Z,84.0
2019-01-14T12:23:16.039Z,83.1
2019-01-14T12:24:16.307Z,83.5
2019-01-14T12:25:16.575Z,83.8
2019-01-14T12:26:15.843Z,82.4
2019-01-14T12:27:16.115Z,82.7
2019-01-14T12:28:16.382Z,82.3
2019-01-14T12:29:15.650Z,82.0
2019-01-14T12:30:15.937Z,83.0
2019-01-14T12:31:15.967Z,82.1
2019-01-14T12:32:16.234Z,81.5
2019-01-14T12:33:16.497Z,81.1
2019-01-14T12:34:15.760Z,81.3
2019-01-14T12:35:16.022Z,81.4
2019-01-14T12:36:16.281Z,82.8
2019-01-14T12:37:16.545Z,81.7
2019-01-14T12:38:15.814Z,81.5
2019-01-14T12:39:19.898Z,81.0
2019-01-14T12:40:16.217Z,82.0
2019-01-14T12:41:16.253Z,81.6
2019-01-14T12:42:16.519Z,81.0
2019-01-14T12:43:16.049Z,81.5
2019-01-14T12:44:16.314Z,80.8
2019-01-14T12:45:16.612Z,81.4
2019-01-14T12:46:15.880Z,81.5
2019-01-14T12:47:16.152Z,80.9
2019-01-14T12:48:16.416Z,81.1
2019-01-14T12:49:15.680Z,81.4
2019-01-14T12:50:15.950Z,81.2
2019-01-14T12:51:16.009Z,82.0
2019-01-14T12:52:16.272Z,82.2
2019-01-14T12:53:16.539Z,83.2
2019-01-14T12:54:15.841Z,83.2
2019-01-14T12:55:16.108Z,83.7
2019-01-14T12:56:16.378Z,83.8
2019-01-14T12:57:15.639Z,84.1
2019-01-14T12:58:15.911Z,83.6
2019-01-14T12:59:16.172Z,83.8
2019-01-14T13:00:16.456Z,84.5
2019-01-14T13:01:16.492Z,84.8
2019-01-14T13:02:15.759Z,84.8
2019-01-14T13:03:16.032Z,84.5
2019-01-14T13:04:16.288Z,84.2
2019-01-14T13:05:16.561Z,84.4
2019-01-14T13:06:15.835Z,84.0
2019-01-14T13:07:16.103Z,84.1
2019-01-14T13:08:16.358Z,84.4
2019-01-14T13:09:15.634Z,84.5
2019-01-14T13:10:15.902Z,84.9
2019-01-14T13:11:15.956Z,84.8
2019-01-14T13:12:16.265Z,85.5
2019-01-14T13:13:16.538Z,85.2
2019-01-14T13:14:15.795Z,85.5
2019-01-14T13:15:16.081Z,85.8
2019-01-14T13:16:16.345Z,85.8
2019-01-14T13:17:15.602Z,85.7
2019-01-14T13:18:15.880Z,85.7